sensor_id;sensor_type;location;lat;lon;timestamp;pressure;altitude;pressure_sealevel;temperature;humidity
21401;BME280;18038;50.166;18.908;2023-03-16T00:00:19;98194.25;;;-2.25;71.71
21401;BME280;18038;50.166;18.908;2023-03-16T00:03:29;98192.91;;;-2.30;71.95
21401;BME280;18038;50.166;18.908;2023-03-16T00:06:36;98191.69;;;-2.37;72.03
21401;BME280;18038;50.166;18.908;2023-03-16T00:09:42;98195.56;;;-2.43;72.39
21401;BME280;18038;50.166;18.908;2023-03-16T00:12:51;98184.09;;;-2.53;73.14
21401;BME280;18038;50.166;18.908;2023-03-16T00:16:00;98187.03;;;-2.58;73.43
21401;BME280;18038;50.166;18.908;2023-03-16T00:19:10;98194.25;;;-2.61;73.62
21401;BME280;18038;50.166;18.908;2023-03-16T00:22:15;98205.66;;;-2.62;73.70
21401;BME280;18038;50.166;18.908;2023-03-16T00:25:22;98208.72;;;-2.69;74.06
21401;BME280;18038;50.166;18.908;2023-03-16T00:28:32;98201.81;;;-2.70;73.90
21401;BME280;18038;50.166;18.908;2023-03-16T00:31:41;98201.28;;;-2.75;74.29
21401;BME280;18038;50.166;18.908;2023-03-16T00:34:48;98204.03;;;-2.76;74.18
21401;BME280;18038;50.166;18.908;2023-03-16T00:37:54;98207.91;;;-2.82;74.38
21401;BME280;18038;50.166;18.908;2023-03-16T00:41:01;98202.56;;;-2.93;74.88
21401;BME280;18038;50.166;18.908;2023-03-16T00:44:11;98201.94;;;-2.97;75.27
21401;BME280;18038;50.166;18.908;2023-03-16T00:47:17;98206.56;;;-3.00;75.67
21401;BME280;18038;50.166;18.908;2023-03-16T00:50:24;98201.50;;;-3.03;75.88
21401;BME280;18038;50.166;18.908;2023-03-16T00:53:31;98201.72;;;-3.06;75.88
21401;BME280;18038;50.166;18.908;2023-03-16T00:56:38;98201.50;;;-3.03;76.08
21401;BME280;18038;50.166;18.908;2023-03-16T00:59:47;98199.84;;;-3.04;76.03
21401;BME280;18038;50.166;18.908;2023-03-16T01:02:56;98203.94;;;-3.00;75.94
21401;BME280;18038;50.166;18.908;2023-03-16T01:06:03;98204.78;;;-3.00;75.97
21401;BME280;18038;50.166;18.908;2023-03-16T01:09:12;98202.47;;;-3.04;76.00
21401;BME280;18038;50.166;18.908;2023-03-16T01:12:19;98205.81;;;-3.02;76.09
21401;BME280;18038;50.166;18.908;2023-03-16T01:15:29;98205.19;;;-3.06;75.96
21401;BME280;18038;50.166;18.908;2023-03-16T01:18:36;98207.91;;;-3.07;76.57
21401;BME280;18038;50.166;18.908;2023-03-16T01:21:43;98208.63;;;-3.05;76.32
21401;BME280;18038;50.166;18.908;2023-03-16T01:24:49;98218.97;;;-3.04;76.07
21401;BME280;18038;50.166;18.908;2023-03-16T01:27:57;98217.63;;;-3.09;76.50
21401;BME280;18038;50.166;18.908;2023-03-16T01:31:08;98216.88;;;-3.12;76.88
21401;BME280;18038;50.166;18.908;2023-03-16T01:34:18;98212.91;;;-3.17;77.20
21401;BME280;18038;50.166;18.908;2023-03-16T01:37:24;98222.31;;;-3.15;77.11
21401;BME280;18038;50.166;18.908;2023-03-16T01:40:34;98228.06;;;-3.22;77.72
21401;BME280;18038;50.166;18.908;2023-03-16T01:43:41;98229.53;;;-3.18;77.69
21401;BME280;18038;50.166;18.908;2023-03-16T01:46:51;98228.50;;;-3.16;77.50
21401;BME280;18038;50.166;18.908;2023-03-16T01:49:57;98228.69;;;-3.19;77.55
21401;BME280;18038;50.166;18.908;2023-03-16T01:53:07;98231.31;;;-3.19;77.91
21401;BME280;18038;50.166;18.908;2023-03-16T01:56:19;98237.59;;;-3.21;77.95
21401;BME280;18038;50.166;18.908;2023-03-16T01:59:35;98235.81;;;-3.21;78.21
21401;BME280;18038;50.166;18.908;2023-03-16T02:02:52;98231.63;;;-3.23;78.08
21401;BME280;18038;50.166;18.908;2023-03-16T02:06:15;98234.53;;;-3.28;78.53
21401;BME280;18038;50.166;18.908;2023-03-16T02:09:30;98235.03;;;-3.36;79.13
21401;BME280;18038;50.166;18.908;2023-03-16T02:12:42;98232.22;;;-3.32;79.12
21401;BME280;18038;50.166;18.908;2023-03-16T02:15:50;98233.66;;;-3.41;79.04
21401;BME280;18038;50.166;18.908;2023-03-16T02:19:00;98250.81;;;-3.37;79.29
21401;BME280;18038;50.166;18.908;2023-03-16T02:22:08;98250.81;;;-3.37;79.08
21401;BME280;18038;50.166;18.908;2023-03-16T02:25:17;98258.47;;;-3.34;78.99
21401;BME280;18038;50.166;18.908;2023-03-16T02:28:32;98254.91;;;-3.33;78.88
21401;BME280;18038;50.166;18.908;2023-03-16T02:31:48;98267.41;;;-3.38;78.91
21401;BME280;18038;50.166;18.908;2023-03-16T02:34:54;98269.81;;;-3.35;78.97
21401;BME280;18038;50.166;18.908;2023-03-16T02:38:02;98266.50;;;-3.37;78.42
21401;BME280;18038;50.166;18.908;2023-03-16T02:41:17;98278.59;;;-3.36;78.83
21401;BME280;18038;50.166;18.908;2023-03-16T02:44:36;98284.00;;;-3.52;79.17
21401;BME280;18038;50.166;18.908;2023-03-16T02:47:48;98285.66;;;-3.51;79.61
21401;BME280;18038;50.166;18.908;2023-03-16T02:51:00;98293.19;;;-3.46;79.59
21401;BME280;18038;50.166;18.908;2023-03-16T02:54:07;98304.47;;;-3.46;79.19
21401;BME280;18038;50.166;18.908;2023-03-16T02:57:14;98302.91;;;-3.48;79.24
21401;BME280;18038;50.166;18.908;2023-03-16T03:00:21;98301.44;;;-3.52;79.33
21401;BME280;18038;50.166;18.908;2023-03-16T03:03:31;98314.50;;;-3.52;79.67
21401;BME280;18038;50.166;18.908;2023-03-16T03:06:39;98310.94;;;-3.51;79.72
21401;BME280;18038;50.166;18.908;2023-03-16T03:09:46;98303.31;;;-3.54;79.24
21401;BME280;18038;50.166;18.908;2023-03-16T03:12:55;98311.78;;;-3.51;79.46
21401;BME280;18038;50.166;18.908;2023-03-16T03:16:04;98314.91;;;-3.59;79.71
21401;BME280;18038;50.166;18.908;2023-03-16T03:19:13;98318.22;;;-3.57;79.87
21401;BME280;18038;50.166;18.908;2023-03-16T03:22:20;98318.06;;;-3.53;79.73
21401;BME280;18038;50.166;18.908;2023-03-16T03:25:26;98327.84;;;-3.57;79.85
21401;BME280;18038;50.166;18.908;2023-03-16T03:28:32;98319.25;;;-3.59;80.15
21401;BME280;18038;50.166;18.908;2023-03-16T03:31:38;98326.38;;;-3.61;80.20
21401;BME280;18038;50.166;18.908;2023-03-16T03:34:48;98330.03;;;-3.64;80.26
21401;BME280;18038;50.166;18.908;2023-03-16T03:37:55;98335.78;;;-3.59;80.44
21401;BME280;18038;50.166;18.908;2023-03-16T03:41:02;98337.66;;;-3.61;79.98
21401;BME280;18038;50.166;18.908;2023-03-16T03:44:13;98344.47;;;-3.58;80.18
21401;BME280;18038;50.166;18.908;2023-03-16T03:47:20;98347.69;;;-3.54;80.04
21401;BME280;18038;50.166;18.908;2023-03-16T03:50:29;98353.97;;;-3.57;79.92
21401;BME280;18038;50.166;18.908;2023-03-16T03:54:08;98346.19;;;-3.71;80.06
21401;BME280;18038;50.166;18.908;2023-03-16T03:57:25;98351.19;;;-3.68;80.52
21401;BME280;18038;50.166;18.908;2023-03-16T04:00:31;98351.00;;;-3.65;80.24
21401;BME280;18038;50.166;18.908;2023-03-16T04:03:38;98360.69;;;-3.67;80.53
21401;BME280;18038;50.166;18.908;2023-03-16T04:06:56;98367.06;;;-3.71;80.18
21401;BME280;18038;50.166;18.908;2023-03-16T04:10:05;98355.59;;;-3.69;80.29
21401;BME280;18038;50.166;18.908;2023-03-16T04:13:15;98362.38;;;-3.66;79.70
21401;BME280;18038;50.166;18.908;2023-03-16T04:16:27;98360.88;;;-3.70;79.83
21401;BME280;18038;50.166;18.908;2023-03-16T04:19:33;98357.25;;;-3.68;80.18
21401;BME280;18038;50.166;18.908;2023-03-16T04:22:48;98367.91;;;-3.71;79.93
21401;BME280;18038;50.166;18.908;2023-03-16T04:26:00;98369.13;;;-3.76;80.39
21401;BME280;18038;50.166;18.908;2023-03-16T04:29:08;98376.84;;;-3.75;80.88
21401;BME280;18038;50.166;18.908;2023-03-16T04:32:14;98373.50;;;-3.77;80.94
21401;BME280;18038;50.166;18.908;2023-03-16T04:35:21;98375.16;;;-3.76;80.63
21401;BME280;18038;50.166;18.908;2023-03-16T04:38:35;98376.84;;;-3.75;80.63
21401;BME280;18038;50.166;18.908;2023-03-16T04:41:44;98374.22;;;-3.75;80.34
21401;BME280;18038;50.166;18.908;2023-03-16T04:44:55;98371.63;;;-3.75;80.53
21401;BME280;18038;50.166;18.908;2023-03-16T04:48:03;98376.47;;;-3.69;80.38
21401;BME280;18038;50.166;18.908;2023-03-16T04:51:11;98380.56;;;-3.65;80.17
21401;BME280;18038;50.166;18.908;2023-03-16T04:54:31;98389.59;;;-3.70;80.16
21401;BME280;18038;50.166;18.908;2023-03-16T04:57:37;98384.78;;;-3.76;80.14
21401;BME280;18038;50.166;18.908;2023-03-16T05:00:46;98383.56;;;-3.71;80.69
21401;BME280;18038;50.166;18.908;2023-03-16T05:03:59;98390.91;;;-3.63;80.46
21401;BME280;18038;50.166;18.908;2023-03-16T05:07:09;98397.59;;;-3.59;80.09
21401;BME280;18038;50.166;18.908;2023-03-16T05:10:24;98397.31;;;-3.54;79.96
21401;BME280;18038;50.166;18.908;2023-03-16T05:13:38;98401.50;;;-3.52;79.61
21401;BME280;18038;50.166;18.908;2023-03-16T05:16:44;98405.97;;;-3.54;79.53
21401;BME280;18038;50.166;18.908;2023-03-16T05:19:51;98402.25;;;-3.50;79.40
21401;BME280;18038;50.166;18.908;2023-03-16T05:23:07;98409.81;;;-3.45;79.24
21401;BME280;18038;50.166;18.908;2023-03-16T05:26:23;98403.34;;;-3.40;79.02
21401;BME280;18038;50.166;18.908;2023-03-16T05:29:30;98408.78;;;-3.43;78.66
21401;BME280;18038;50.166;18.908;2023-03-16T05:32:37;98413.06;;;-3.42;79.09
21401;BME280;18038;50.166;18.908;2023-03-16T05:35:44;98415.72;;;-3.29;79.06
21401;BME280;18038;50.166;18.908;2023-03-16T05:38:51;98421.28;;;-3.21;79.05
21401;BME280;18038;50.166;18.908;2023-03-16T05:42:11;98419.13;;;-3.14;78.38
21401;BME280;18038;50.166;18.908;2023-03-16T05:45:25;98427.13;;;-3.03;78.49
21401;BME280;18038;50.166;18.908;2023-03-16T05:48:45;98428.78;;;-3.02;78.08
21401;BME280;18038;50.166;18.908;2023-03-16T05:51:55;98430.69;;;-2.91;77.79
21401;BME280;18038;50.166;18.908;2023-03-16T05:55:03;98435.88;;;-2.77;78.07
21401;BME280;18038;50.166;18.908;2023-03-16T05:58:13;98435.78;;;-2.62;77.64
21401;BME280;18038;50.166;18.908;2023-03-16T06:01:20;98447.34;;;-2.39;77.06
21401;BME280;18038;50.166;18.908;2023-03-16T06:04:28;98454.38;;;-1.89;75.95
21401;BME280;18038;50.166;18.908;2023-03-16T06:07:37;98466.25;;;-1.33;73.58
21401;BME280;18038;50.166;18.908;2023-03-16T06:10:46;98461.84;;;-1.09;70.98
21401;BME280;18038;50.166;18.908;2023-03-16T06:13:56;98468.53;;;-0.21;71.04
21401;BME280;18038;50.166;18.908;2023-03-16T06:17:07;98467.91;;;0.33;68.12
21401;BME280;18038;50.166;18.908;2023-03-16T06:20:15;98472.56;;;1.06;65.81
21401;BME280;18038;50.166;18.908;2023-03-16T06:23:22;98474.59;;;1.67;62.96
21401;BME280;18038;50.166;18.908;2023-03-16T06:26:30;98480.25;;;2.26;61.49
21401;BME280;18038;50.166;18.908;2023-03-16T06:29:43;98481.13;;;2.67;58.03
21401;BME280;18038;50.166;18.908;2023-03-16T06:32:49;98479.66;;;2.83;57.68
21401;BME280;18038;50.166;18.908;2023-03-16T06:35:56;98484.66;;;3.27;56.58
21401;BME280;18038;50.166;18.908;2023-03-16T06:39:11;98494.31;;;3.07;56.33
21401;BME280;18038;50.166;18.908;2023-03-16T06:42:22;98492.16;;;3.80;53.91
21401;BME280;18038;50.166;18.908;2023-03-16T06:45:30;98494.97;;;3.69;53.98
21401;BME280;18038;50.166;18.908;2023-03-16T06:48:38;98498.28;;;3.90;53.07
21401;BME280;18038;50.166;18.908;2023-03-16T06:51:44;98500.31;;;2.69;55.26
21401;BME280;18038;50.166;18.908;2023-03-16T06:54:52;98492.63;;;2.66;56.93
21401;BME280;18038;50.166;18.908;2023-03-16T06:58:01;98496.13;;;2.76;56.99
21401;BME280;18038;50.166;18.908;2023-03-16T07:01:10;98505.16;;;3.04;55.56
21401;BME280;18038;50.166;18.908;2023-03-16T07:04:17;98503.44;;;2.93;56.37
21401;BME280;18038;50.166;18.908;2023-03-16T07:07:24;98513.19;;;2.10;57.96
21401;BME280;18038;50.166;18.908;2023-03-16T07:10:30;98502.97;;;1.43;60.34
21401;BME280;18038;50.166;18.908;2023-03-16T07:13:37;98518.97;;;1.51;60.83
21401;BME280;18038;50.166;18.908;2023-03-16T07:16:47;98523.69;;;1.36;61.21
21401;BME280;18038;50.166;18.908;2023-03-16T07:19:57;98527.34;;;1.13;61.74
21401;BME280;18038;50.166;18.908;2023-03-16T07:23:07;98522.28;;;1.21;61.86
21401;BME280;18038;50.166;18.908;2023-03-16T07:26:19;98531.22;;;0.41;63.67
21401;BME280;18038;50.166;18.908;2023-03-16T07:29:29;98525.81;;;0.54;65.03
21401;BME280;18038;50.166;18.908;2023-03-16T07:32:41;98528.44;;;0.88;63.64
21401;BME280;18038;50.166;18.908;2023-03-16T07:35:48;98526.53;;;0.78;64.60
21401;BME280;18038;50.166;18.908;2023-03-16T07:38:56;98518.47;;;1.57;61.18
21401;BME280;18038;50.166;18.908;2023-03-16T07:42:06;98522.78;;;1.58;61.56
21401;BME280;18038;50.166;18.908;2023-03-16T07:45:24;98523.72;;;1.57;61.63
21401;BME280;18038;50.166;18.908;2023-03-16T07:48:33;98531.56;;;2.01;59.79
21401;BME280;18038;50.166;18.908;2023-03-16T07:51:40;98536.91;;;2.10;59.71
21401;BME280;18038;50.166;18.908;2023-03-16T07:54:46;98546.41;;;2.23;59.84
21401;BME280;18038;50.166;18.908;2023-03-16T07:57:54;98536.91;;;2.31;59.27
21401;BME280;18038;50.166;18.908;2023-03-16T08:01:07;98538.19;;;2.37;58.49
21401;BME280;18038;50.166;18.908;2023-03-16T08:04:21;98536.19;;;2.60;57.66
21401;BME280;18038;50.166;18.908;2023-03-16T08:07:28;98547.16;;;3.17;56.47
21401;BME280;18038;50.166;18.908;2023-03-16T08:10:39;98539.72;;;3.70;54.15
21401;BME280;18038;50.166;18.908;2023-03-16T08:13:50;98549.13;;;4.41;51.91
21401;BME280;18038;50.166;18.908;2023-03-16T08:17:08;98541.81;;;5.45;50.00
21401;BME280;18038;50.166;18.908;2023-03-16T08:20:17;98552.88;;;5.13;49.75
21401;BME280;18038;50.166;18.908;2023-03-16T08:23:24;98547.00;;;4.45;51.27
21401;BME280;18038;50.166;18.908;2023-03-16T08:26:30;98556.25;;;3.92;53.35
21401;BME280;18038;50.166;18.908;2023-03-16T08:29:44;98558.88;;;4.41;52.34
21401;BME280;18038;50.166;18.908;2023-03-16T08:32:52;98561.41;;;3.93;52.60
21401;BME280;18038;50.166;18.908;2023-03-16T08:36:04;98562.75;;;3.39;54.15
21401;BME280;18038;50.166;18.908;2023-03-16T08:39:12;98564.63;;;3.18;55.53
21401;BME280;18038;50.166;18.908;2023-03-16T08:42:30;98569.28;;;3.35;55.55
21401;BME280;18038;50.166;18.908;2023-03-16T08:45:37;98569.91;;;4.07;54.55
21401;BME280;18038;50.166;18.908;2023-03-16T08:48:44;98573.63;;;3.65;54.04
21401;BME280;18038;50.166;18.908;2023-03-16T08:51:53;98568.19;;;4.82;52.05
21401;BME280;18038;50.166;18.908;2023-03-16T08:55:04;98568.56;;;5.24;50.61
21401;BME280;18038;50.166;18.908;2023-03-16T08:58:18;98570.16;;;6.34;47.82
21401;BME280;18038;50.166;18.908;2023-03-16T09:01:25;98580.47;;;7.24;44.97
21401;BME280;18038;50.166;18.908;2023-03-16T09:04:31;98577.94;;;6.80;45.95
21401;BME280;18038;50.166;18.908;2023-03-16T09:07:41;98575.94;;;7.51;43.60
21401;BME280;18038;50.166;18.908;2023-03-16T09:10:58;98578.88;;;7.98;42.92
21401;BME280;18038;50.166;18.908;2023-03-16T09:14:19;98578.41;;;8.11;41.96
21401;BME280;18038;50.166;18.908;2023-03-16T09:17:24;98581.00;;;7.86;42.40
21401;BME280;18038;50.166;18.908;2023-03-16T09:20:31;98580.63;;;6.88;43.44
21401;BME280;18038;50.166;18.908;2023-03-16T09:23:42;98582.56;;;7.12;44.42
21401;BME280;18038;50.166;18.908;2023-03-16T09:26:51;98587.19;;;8.52;41.18
21401;BME280;18038;50.166;18.908;2023-03-16T09:29:57;98594.34;;;8.60;41.45
21401;BME280;18038;50.166;18.908;2023-03-16T09:33:05;98587.56;;;9.22;39.84
21401;BME280;18038;50.166;18.908;2023-03-16T09:36:14;98583.44;;;9.81;39.04
21401;BME280;18038;50.166;18.908;2023-03-16T09:39:25;98584.88;;;10.91;36.12
21401;BME280;18038;50.166;18.908;2023-03-16T09:42:36;98584.38;;;10.35;35.22
21401;BME280;18038;50.166;18.908;2023-03-16T09:45:54;98588.22;;;9.24;38.42
21401;BME280;18038;50.166;18.908;2023-03-16T09:49:10;98596.56;;;9.20;37.71
21401;BME280;18038;50.166;18.908;2023-03-16T09:52:27;98595.78;;;8.87;38.05
21401;BME280;18038;50.166;18.908;2023-03-16T09:55:48;98578.31;;;10.64;36.08
21401;BME280;18038;50.166;18.908;2023-03-16T09:58:59;98580.84;;;10.42;35.71
21401;BME280;18038;50.166;18.908;2023-03-16T10:02:36;98583.34;;;10.44;34.77
21401;BME280;18038;50.166;18.908;2023-03-16T10:05:57;98585.25;;;11.03;34.86
21401;BME280;18038;50.166;18.908;2023-03-16T10:09:22;98587.38;;;10.92;33.61
21401;BME280;18038;50.166;18.908;2023-03-16T10:12:44;98593.94;;;11.34;32.35
21401;BME280;18038;50.166;18.908;2023-03-16T10:15:58;98600.56;;;9.56;34.08
21401;BME280;18038;50.166;18.908;2023-03-16T10:19:13;98596.16;;;7.94;36.90
21401;BME280;18038;50.166;18.908;2023-03-16T10:22:29;98598.56;;;7.63;38.79
21401;BME280;18038;50.166;18.908;2023-03-16T10:25:43;98597.22;;;7.51;38.49
21401;BME280;18038;50.166;18.908;2023-03-16T10:28:54;98602.88;;;7.56;38.71
21401;BME280;18038;50.166;18.908;2023-03-16T10:32:13;98598.50;;;7.12;39.72
21401;BME280;18038;50.166;18.908;2023-03-16T10:35:40;98597.31;;;6.10;42.03
21401;BME280;18038;50.166;18.908;2023-03-16T10:38:53;98603.06;;;5.88;41.88
21401;BME280;18038;50.166;18.908;2023-03-16T10:42:02;98596.41;;;6.20;41.13
21401;BME280;18038;50.166;18.908;2023-03-16T10:45:23;98602.78;;;6.71;40.31
21401;BME280;18038;50.166;18.908;2023-03-16T10:48:33;98603.06;;;6.24;40.77
21401;BME280;18038;50.166;18.908;2023-03-16T10:51:42;98599.75;;;5.68;42.14
21401;BME280;18038;50.166;18.908;2023-03-16T10:54:53;98604.94;;;4.95;43.21
21401;BME280;18038;50.166;18.908;2023-03-16T10:58:02;98603.72;;;5.17;43.28
21401;BME280;18038;50.166;18.908;2023-03-16T11:01:17;98599.38;;;5.99;41.98
21401;BME280;18038;50.166;18.908;2023-03-16T11:04:30;98595.50;;;5.93;40.34
21401;BME280;18038;50.166;18.908;2023-03-16T11:07:37;98601.72;;;6.02;39.65
21401;BME280;18038;50.166;18.908;2023-03-16T11:10:46;98591.75;;;6.58;40.08
21401;BME280;18038;50.166;18.908;2023-03-16T11:14:01;98594.72;;;5.83;41.14
21401;BME280;18038;50.166;18.908;2023-03-16T11:17:16;98599.31;;;4.70;41.62
21401;BME280;18038;50.166;18.908;2023-03-16T11:20:32;98603.72;;;4.79;40.34
21401;BME280;18038;50.166;18.908;2023-03-16T11:23:47;98596.63;;;5.55;39.77
21401;BME280;18038;50.166;18.908;2023-03-16T11:27:03;98589.75;;;6.86;37.99
21401;BME280;18038;50.166;18.908;2023-03-16T11:30:21;98585.97;;;7.31;35.88
21401;BME280;18038;50.166;18.908;2023-03-16T11:33:35;98592.88;;;7.15;37.04
21401;BME280;18038;50.166;18.908;2023-03-16T11:36:53;98589.75;;;6.86;37.29
21401;BME280;18038;50.166;18.908;2023-03-16T11:40:12;98592.47;;;5.88;37.52
21401;BME280;18038;50.166;18.908;2023-03-16T11:43:50;98580.75;;;5.73;36.91
21401;BME280;18038;50.166;18.908;2023-03-16T11:47:06;98587.03;;;6.77;35.28
21401;BME280;18038;50.166;18.908;2023-03-16T11:50:45;98583.59;;;7.19;36.85
21401;BME280;18038;50.166;18.908;2023-03-16T11:54:24;98575.94;;;7.51;36.08
21401;BME280;18038;50.166;18.908;2023-03-16T11:57:52;98572.69;;;8.55;37.01
21401;BME280;18038;50.166;18.908;2023-03-16T12:01:16;98581.91;;;9.16;34.87
21401;BME280;18038;50.166;18.908;2023-03-16T12:04:51;98579.69;;;8.64;35.51
21401;BME280;18038;50.166;18.908;2023-03-16T12:11:57;98573.56;;;9.28;33.48
21401;BME280;18038;50.166;18.908;2023-03-16T12:15:21;98576.22;;;9.28;31.93
21401;BME280;18038;50.166;18.908;2023-03-16T12:18:44;98578.31;;;8.85;32.70
21401;BME280;18038;50.166;18.908;2023-03-16T12:22:02;98576.19;;;6.97;33.94
21401;BME280;18038;50.166;18.908;2023-03-16T12:25:23;98572.38;;;6.39;36.55
21401;BME280;18038;50.166;18.908;2023-03-16T12:28:35;98571.75;;;6.27;37.92
21401;BME280;18038;50.166;18.908;2023-03-16T12:31:50;98573.53;;;6.63;37.34
21401;BME280;18038;50.166;18.908;2023-03-16T12:35:15;98573.59;;;6.09;36.70
21401;BME280;18038;50.166;18.908;2023-03-16T12:38:43;98571.59;;;6.47;36.89
21401;BME280;18038;50.166;18.908;2023-03-16T12:42:04;98568.09;;;7.41;36.92
21401;BME280;18038;50.166;18.908;2023-03-16T12:45:35;98567.59;;;7.37;37.04
21401;BME280;18038;50.166;18.908;2023-03-16T12:48:52;98566.00;;;7.61;36.08
21401;BME280;18038;50.166;18.908;2023-03-16T12:52:06;98572.06;;;8.12;34.48
21401;BME280;18038;50.166;18.908;2023-03-16T12:55:17;98572.31;;;7.68;34.40
21401;BME280;18038;50.166;18.908;2023-03-16T12:58:29;98579.31;;;7.61;34.05
21401;BME280;18038;50.166;18.908;2023-03-16T13:01:42;98572.56;;;6.98;34.67
21401;BME280;18038;50.166;18.908;2023-03-16T13:04:56;98575.47;;;6.34;35.18
21401;BME280;18038;50.166;18.908;2023-03-16T13:08:08;98575.50;;;5.99;36.43
21401;BME280;18038;50.166;18.908;2023-03-16T13:11:18;98585.19;;;5.72;37.60
21401;BME280;18038;50.166;18.908;2023-03-16T13:14:40;98579.50;;;5.67;36.92
21401;BME280;18038;50.166;18.908;2023-03-16T13:18:03;98580.84;;;6.25;36.41
21401;BME280;18038;50.166;18.908;2023-03-16T13:21:17;98580.66;;;6.18;37.09
21401;BME280;18038;50.166;18.908;2023-03-16T13:24:37;98586.50;;;5.86;37.58
21401;BME280;18038;50.166;18.908;2023-03-16T13:27:47;98581.25;;;5.58;37.56
21401;BME280;18038;50.166;18.908;2023-03-16T13:31:01;98586.44;;;5.22;38.52
21401;BME280;18038;50.166;18.908;2023-03-16T13:34:14;98583.50;;;5.43;39.47
21401;BME280;18038;50.166;18.908;2023-03-16T13:37:28;98590.66;;;5.15;39.14
21401;BME280;18038;50.166;18.908;2023-03-16T13:40:45;98589.25;;;4.84;39.52
21401;BME280;18038;50.166;18.908;2023-03-16T13:43:53;98583.84;;;4.75;38.90
21401;BME280;18038;50.166;18.908;2023-03-16T13:47:05;98585.41;;;4.58;39.65
21401;BME280;18038;50.166;18.908;2023-03-16T13:50:14;98579.16;;;4.40;40.61
21401;BME280;18038;50.166;18.908;2023-03-16T13:53:23;98580.47;;;4.17;39.29
21401;BME280;18038;50.166;18.908;2023-03-16T13:56:32;98567.41;;;3.96;39.62
21401;BME280;18038;50.166;18.908;2023-03-16T13:59:38;98570.84;;;4.06;40.35
21401;BME280;18038;50.166;18.908;2023-03-16T14:02:51;98565.81;;;4.42;39.66
21401;BME280;18038;50.166;18.908;2023-03-16T14:05:59;98568.97;;;4.55;39.53
21401;BME280;18038;50.166;18.908;2023-03-16T14:09:14;98569.56;;;4.49;38.46
21401;BME280;18038;50.166;18.908;2023-03-16T14:12:24;98568.50;;;4.69;38.97
21401;BME280;18038;50.166;18.908;2023-03-16T14:15:31;98563.72;;;4.82;38.21
21401;BME280;18038;50.166;18.908;2023-03-16T14:18:43;98566.53;;;4.81;37.94
21401;BME280;18038;50.166;18.908;2023-03-16T14:21:53;98562.97;;;4.72;37.34
21401;BME280;18038;50.166;18.908;2023-03-16T14:24:59;98570.19;;;4.70;37.20
21401;BME280;18038;50.166;18.908;2023-03-16T14:28:12;98572.06;;;4.50;36.40
21401;BME280;18038;50.166;18.908;2023-03-16T14:31:20;98571.66;;;4.45;36.66
21401;BME280;18038;50.166;18.908;2023-03-16T14:34:36;98573.66;;;4.04;38.26
21401;BME280;18038;50.166;18.908;2023-03-16T14:37:43;98569.06;;;3.97;38.72
21401;BME280;18038;50.166;18.908;2023-03-16T14:40:53;98571.00;;;4.04;39.06
21401;BME280;18038;50.166;18.908;2023-03-16T14:44:02;98575.72;;;4.10;39.72
21401;BME280;18038;50.166;18.908;2023-03-16T14:47:20;98568.38;;;4.14;39.89
21401;BME280;18038;50.166;18.908;2023-03-16T14:50:33;98569.75;;;4.08;39.05
21401;BME280;18038;50.166;18.908;2023-03-16T14:53:40;98574.06;;;4.00;39.94
21401;BME280;18038;50.166;18.908;2023-03-16T14:56:49;98566.28;;;3.88;38.62
21401;BME280;18038;50.166;18.908;2023-03-16T14:59:57;98580.88;;;3.73;39.00
21401;BME280;18038;50.166;18.908;2023-03-16T15:03:06;98576.44;;;3.64;39.40
21401;BME280;18038;50.166;18.908;2023-03-16T15:06:21;98576.13;;;3.57;40.05
21401;BME280;18038;50.166;18.908;2023-03-16T15:09:37;98578.19;;;3.44;40.75
21401;BME280;18038;50.166;18.908;2023-03-16T15:12:48;98581.66;;;3.35;40.99
21401;BME280;18038;50.166;18.908;2023-03-16T15:16:08;98584.19;;;3.46;41.03
21401;BME280;18038;50.166;18.908;2023-03-16T15:19:17;98578.66;;;3.59;40.28
21401;BME280;18038;50.166;18.908;2023-03-16T15:22:28;98574.75;;;3.63;40.87
21401;BME280;18038;50.166;18.908;2023-03-16T15:25:37;98575.31;;;3.86;39.85
21401;BME280;18038;50.166;18.908;2023-03-16T15:28:45;98586.03;;;3.84;39.78
21401;BME280;18038;50.166;18.908;2023-03-16T15:31:52;98581.00;;;3.81;39.38
21401;BME280;18038;50.166;18.908;2023-03-16T15:34:58;98585.16;;;3.74;40.10
21401;BME280;18038;50.166;18.908;2023-03-16T15:38:13;98581.03;;;3.72;40.18
21401;BME280;18038;50.166;18.908;2023-03-16T15:41:23;98582.41;;;3.76;40.29
21401;BME280;18038;50.166;18.908;2023-03-16T15:44:40;98581.13;;;3.60;40.73
21401;BME280;18038;50.166;18.908;2023-03-16T15:47:46;98589.22;;;3.59;40.34
21401;BME280;18038;50.166;18.908;2023-03-16T15:50:57;98584.19;;;3.46;40.38
21401;BME280;18038;50.166;18.908;2023-03-16T15:54:09;98585.56;;;3.40;40.38
21401;BME280;18038;50.166;18.908;2023-03-16T15:57:17;98594.31;;;3.41;40.50
21401;BME280;18038;50.166;18.908;2023-03-16T16:00:30;98584.03;;;3.38;40.33
21401;BME280;18038;50.166;18.908;2023-03-16T16:03:39;98571.22;;;3.33;40.44
21401;BME280;18038;50.166;18.908;2023-03-16T16:06:47;98590.84;;;3.40;40.57
21401;BME280;18038;50.166;18.908;2023-03-16T16:10:00;98588.72;;;3.34;40.25
21401;BME280;18038;50.166;18.908;2023-03-16T16:13:12;98591.28;;;3.45;40.01
21401;BME280;18038;50.166;18.908;2023-03-16T16:16:25;98589.59;;;3.44;39.83
21401;BME280;18038;50.166;18.908;2023-03-16T16:19:33;98596.13;;;3.40;40.30
21401;BME280;18038;50.166;18.908;2023-03-16T16:22:40;98584.09;;;3.26;39.89
21401;BME280;18038;50.166;18.908;2023-03-16T16:25:50;98603.44;;;3.27;40.15
21401;BME280;18038;50.166;18.908;2023-03-16T16:29:00;98601.47;;;3.29;40.21
21401;BME280;18038;50.166;18.908;2023-03-16T16:32:22;98594.66;;;3.17;40.91
21401;BME280;18038;50.166;18.908;2023-03-16T16:35:29;98604.63;;;3.13;40.83
21401;BME280;18038;50.166;18.908;2023-03-16T16:38:35;98607.59;;;2.99;41.04
21401;BME280;18038;50.166;18.908;2023-03-16T16:41:47;98608.84;;;2.95;41.35
21401;BME280;18038;50.166;18.908;2023-03-16T16:44:56;98610.63;;;2.94;41.06
21401;BME280;18038;50.166;18.908;2023-03-16T16:48:23;98605.34;;;2.85;41.57
21401;BME280;18038;50.166;18.908;2023-03-16T16:51:34;98609.84;;;2.73;42.42